Time;durP1;ratioP1;P1;durP2;ratioP2;P2;SDS_P1;SDS_P2;PMS_P1;PMS_P2;Temp;Humidity;BMP_temperature;BMP_pressure;BME280_temperature;BME280_humidity;BME280_pressure;Samples;Min_cycle;Max_cycle;Signal;HPM_P1;HPM_P2
2023/07/31 00:00:47;;;;;;;26.17;16.73;;;;;;;;;;4937878;29;20052;-72
2023/07/31 00:03:13;;;;;;;30.50;14.27;;;;;;;;;;4936466;29;20047;-72
2023/07/31 00:05:39;;;;;;;22.05;13.50;;;;;;;;;;4936185;29;20048;-72
2023/07/31 00:08:05;;;;;;;23.92;12.70;;;;;;;;;;4936556;29;20028;-73
2023/07/31 00:10:31;;;;;;;31.98;14.57;;;;;;;;;;4935936;29;20168;-73
2023/07/31 00:12:57;;;;;;;30.05;13.25;;;;;;;;;;4936391;29;20040;-72
2023/07/31 00:15:23;;;;;;;20.65;12.75;;;;;;;;;;4951064;29;20132;-73
2023/07/31 00:17:49;;;;;;;15.30;11.02;;;;;;;;;;4936561;29;20056;-74
2023/07/31 00:20:15;;;;;;;15.70;9.85;;;;;;;;;;4936615;29;20495;-72
2023/07/31 00:22:41;;;;;;;24.88;9.52;;;;;;;;;;4936457;29;20043;-72
2023/07/31 00:25:07;;;;;;;17.83;9.10;;;;;;;;;;4935583;29;20039;-73
2023/07/31 00:27:33;;;;;;;17.67;10.40;;;;;;;;;;4935581;29;20036;-73
2023/07/31 00:29:59;;;;;;;14.30;8.27;;;;;;;;;;4950293;29;20487;-73
2023/07/31 00:32:25;;;;;;;19.17;9.35;;;;;;;;;;4935036;29;20043;-73
2023/07/31 00:34:51;;;;;;;17.40;9.32;;;;;;;;;;4934349;29;20038;-75
2023/07/31 00:37:17;;;;;;;13.35;8.93;;;;;;;;;;4935691;29;20077;-74
2023/07/31 00:39:43;;;;;;;21.48;9.80;;;;;;;;;;4950077;29;20040;-74
2023/07/31 00:42:09;;;;;;;14.43;8.68;;;;;;;;;;4935429;29;20494;-73
2023/07/31 00:44:35;;;;;;;16.70;8.55;;;;;;;;;;4949890;29;20039;-73
2023/07/31 00:47:01;;;;;;;14.90;7.90;;;;;;;;;;4935495;29;20032;-73
2023/07/31 00:49:27;;;;;;;12.93;7.97;;;;;;;;;;4935110;29;20482;-72
2023/07/31 00:51:53;;;;;;;12.43;6.97;;;;;;;;;;4934434;29;20047;-74
2023/07/31 00:54:19;;;;;;;13.68;7.00;;;;;;;;;;4939635;29;20430;-74
2023/07/31 00:56:45;;;;;;;8.48;6.10;;;;;;;;;;4961977;28;20058;-73
2023/07/31 00:59:12;;;;;;;21.13;7.15;;;;;;;;;;4934611;29;20443;-73
2023/07/31 01:01:38;;;;;;;21.23;7.45;;;;;;;;;;4934082;29;20031;-74
2023/07/31 01:04:04;;;;;;;11.70;7.45;;;;;;;;;;4935148;29;20047;-74
2023/07/31 01:06:36;;;;;;;19.20;6.90;;;;;;;;;;4933564;29;20467;-74
2023/07/31 01:09:06;;;;;;;20.15;7.03;;;;;;;;;;4933800;29;20047;-72
2023/07/31 01:11:37;;;;;;;10.80;6.80;;;;;;;;;;4934554;29;20350;-73
2023/07/31 01:14:03;;;;;;;20.92;7.47;;;;;;;;;;4917785;29;20039;-73
2023/07/31 01:16:29;;;;;;;12.65;7.57;;;;;;;;;;4949423;29;20083;-74
2023/07/31 01:18:55;;;;;;;14.93;6.70;;;;;;;;;;4934879;29;20040;-73
2023/07/31 01:21:22;;;;;;;21.42;7.45;;;;;;;;;;4934893;29;20126;-73
2023/07/31 01:24:07;;;;;;;12.55;7.25;;;;;;;;;;4935107;29;20036;-73
2023/07/31 01:26:34;;;;;;;10.40;6.72;;;;;;;;;;4936284;29;20459;-74
2023/07/31 01:29:23;;;;;;;12.90;7.22;;;;;;;;;;4935159;29;20433;-73
2023/07/31 01:31:49;;;;;;;21.92;7.55;;;;;;;;;;4915815;29;20114;-75
2023/07/31 01:34:17;;;;;;;16.30;6.53;;;;;;;;;;4934518;29;20040;-73
2023/07/31 01:36:43;;;;;;;14.05;6.68;;;;;;;;;;4948945;29;20051;-73
2023/07/31 01:39:09;;;;;;;11.90;6.70;;;;;;;;;;4934457;29;20039;-75
2023/07/31 01:41:35;;;;;;;14.77;7.03;;;;;;;;;;4934264;29;20038;-74
2023/07/31 01:44:00;;;;;;;15.43;6.97;;;;;;;;;;4932239;29;20451;-73
2023/07/31 01:46:27;;;;;;;16.33;6.63;;;;;;;;;;4933985;29;20097;-73
2023/07/31 01:48:53;;;;;;;15.45;6.47;;;;;;;;;;4934175;29;20118;-73
2023/07/31 01:51:19;;;;;;;12.77;6.68;;;;;;;;;;4934108;29;20043;-73
2023/07/31 01:53:45;;;;;;;14.93;6.68;;;;;;;;;;4916750;29;20035;-73
2023/07/31 01:56:11;;;;;;;15.95;6.75;;;;;;;;;;4933859;29;20046;-74
2023/07/31 01:58:38;;;;;;;12.73;6.90;;;;;;;;;;4933752;29;20040;-73
2023/07/31 02:01:04;;;;;;;10.75;7.65;;;;;;;;;;4934001;29;20529;-73
2023/07/31 02:03:34;;;;;;;14.77;6.78;;;;;;;;;;4948439;29;20406;-75
2023/07/31 02:06:00;;;;;;;12.93;6.13;;;;;;;;;;4932652;29;20291;-73
2023/07/31 02:08:26;;;;;;;13.32;6.28;;;;;;;;;;4933895;29;20039;-72
2023/07/31 02:10:53;;;;;;;13.13;5.75;;;;;;;;;;4933987;29;20057;-74
2023/07/31 02:13:19;;;;;;;7.95;6.03;;;;;;;;;;4934431;29;20430;-73
2023/07/31 02:15:45;;;;;;;15.40;6.53;;;;;;;;;;4948504;29;20122;-73
2023/07/31 02:18:11;;;;;;;8.93;6.10;;;;;;;;;;4933897;29;20063;-73
2023/07/31 02:20:37;;;;;;;12.45;6.18;;;;;;;;;;4933618;29;20028;-74
2023/07/31 02:23:03;;;;;;;15.27;5.95;;;;;;;;;;4933670;29;20040;-73
2023/07/31 02:25:29;;;;;;;10.05;5.32;;;;;;;;;;4933318;29;20574;-74
2023/07/31 02:27:56;;;;;;;8.75;5.30;;;;;;;;;;4933774;29;20043;-74
2023/07/31 02:30:22;;;;;;;9.45;5.22;;;;;;;;;;4954395;29;20044;-74
2023/07/31 02:32:48;;;;;;;14.02;6.07;;;;;;;;;;4951188;29;20035;-74
2023/07/31 02:35:15;;;;;;;13.32;5.82;;;;;;;;;;4933634;29;20040;-73
2023/07/31 02:37:42;;;;;;;11.90;5.38;;;;;;;;;;4948009;29;20497;-74
2023/07/31 02:40:08;;;;;;;8.10;5.78;;;;;;;;;;4933427;29;20127;-73
2023/07/31 02:42:34;;;;;;;11.95;5.28;;;;;;;;;;4932323;29;20059;-73
2023/07/31 02:45:00;;;;;;;6.72;5.50;;;;;;;;;;4933938;29;20502;-74
2023/07/31 02:47:26;;;;;;;11.18;5.60;;;;;;;;;;4933822;29;20043;-74
2023/07/31 02:49:52;;;;;;;9.35;5.60;;;;;;;;;;4933089;29;20530;-75
2023/07/31 02:52:19;;;;;;;11.02;5.60;;;;;;;;;;4932192;29;20056;-74
2023/07/31 02:54:45;;;;;;;7.82;5.40;;;;;;;;;;4948135;29;20067;-74
2023/07/31 02:57:11;;;;;;;9.70;5.60;;;;;;;;;;4933420;29;20059;-74
2023/07/31 02:59:37;;;;;;;14.30;5.82;;;;;;;;;;4932268;29;20035;-75
2023/07/31 03:02:04;;;;;;;11.40;5.32;;;;;;;;;;4938033;29;20090;-75
2023/07/31 03:04:30;;;;;;;14.85;6.55;;;;;;;;;;4946522;29;20042;-74
2023/07/31 03:06:56;;;;;;;12.57;5.43;;;;;;;;;;4957202;29;20042;-73
2023/07/31 03:09:22;;;;;;;13.20;6.57;;;;;;;;;;4933126;29;20043;-75
2023/07/31 03:11:48;;;;;;;10.18;5.80;;;;;;;;;;4931803;29;20542;-74
2023/07/31 03:14:14;;;;;;;8.95;5.55;;;;;;;;;;4932944;29;20043;-74
2023/07/31 03:16:40;;;;;;;16.42;5.50;;;;;;;;;;4947640;29;20039;-75
2023/07/31 03:19:06;;;;;;;12.63;5.45;;;;;;;;;;4947608;29;20050;-75
2023/07/31 03:21:32;;;;;;;9.95;6.38;;;;;;;;;;4931407;29;20048;-74
2023/07/31 03:23:58;;;;;;;11.68;5.90;;;;;;;;;;4933119;29;20048;-75
2023/07/31 03:26:25;;;;;;;9.60;5.85;;;;;;;;;;4931582;29;20040;-76
2023/07/31 03:28:50;;;;;;;11.73;6.50;;;;;;;;;;4932770;29;20387;-75
2023/07/31 03:31:17;;;;;;;10.80;5.85;;;;;;;;;;4947415;29;20106;-75
2023/07/31 03:33:43;;;;;;;13.65;5.88;;;;;;;;;;4932876;29;20043;-76
2023/07/31 03:36:09;;;;;;;12.50;6.13;;;;;;;;;;4947517;29;20040;-74
2023/07/31 03:38:35;;;;;;;21.40;6.90;;;;;;;;;;4949454;29;20043;-74
2023/07/31 03:41:02;;;;;;;14.25;6.38;;;;;;;;;;4952715;29;20039;-74
2023/07/31 03:43:29;;;;;;;10.45;6.13;;;;;;;;;;4949376;29;20066;-74
2023/07/31 03:45:55;;;;;;;14.27;5.47;;;;;;;;;;4933306;29;20036;-73
2023/07/31 03:48:20;;;;;;;11.45;5.90;;;;;;;;;;4916132;29;20051;-75
2023/07/31 03:50:46;;;;;;;15.95;6.53;;;;;;;;;;4931186;29;20130;-74
2023/07/31 03:53:13;;;;;;;16.58;6.15;;;;;;;;;;4947589;29;20059;-76
2023/07/31 03:55:39;;;;;;;7.82;5.95;;;;;;;;;;4931027;29;20035;-75
2023/07/31 03:58:05;;;;;;;16.25;6.10;;;;;;;;;;4932279;29;20131;-75
2023/07/31 04:00:32;;;;;;;12.77;6.45;;;;;;;;;;4932511;29;20474;-75
2023/07/31 04:02:58;;;;;;;9.73;7.00;;;;;;;;;;4932785;29;20035;-74
2023/07/31 04:05:24;;;;;;;13.98;6.00;;;;;;;;;;4932509;29;20139;-75
2023/07/31 04:07:50;;;;;;;15.65;5.68;;;;;;;;;;4933664;29;20094;-73
2023/07/31 04:10:16;;;;;;;12.27;6.05;;;;;;;;;;4935862;29;20538;-75
2023/07/31 04:12:42;;;;;;;11.10;6.47;;;;;;;;;;4935810;29;20054;-75
2023/07/31 04:15:08;;;;;;;9.75;5.60;;;;;;;;;;4935816;29;20511;-75
2023/07/31 04:17:35;;;;;;;14.55;6.57;;;;;;;;;;4934210;29;20043;-75
2023/07/31 04:20:02;;;;;;;12.20;6.25;;;;;;;;;;4935861;29;20114;-74
2023/07/31 04:22:30;;;;;;;8.93;5.65;;;;;;;;;;4935824;29;20062;-74
2023/07/31 04:24:56;;;;;;;16.42;5.82;;;;;;;;;;4934133;29;20491;-74
2023/07/31 04:27:22;;;;;;;12.63;5.93;;;;;;;;;;4935656;29;20039;-76
2023/07/31 04:29:48;;;;;;;10.30;5.78;;;;;;;;;;4935286;29;20039;-75
2023/07/31 04:32:16;;;;;;;22.35;5.80;;;;;;;;;;4935375;29;20569;-75
2023/07/31 04:34:43;;;;;;;17.33;5.38;;;;;;;;;;4934102;29;20074;-75
2023/07/31 04:37:09;;;;;;;9.35;5.55;;;;;;;;;;4935307;29;20140;-75
2023/07/31 04:39:35;;;;;;;16.02;5.90;;;;;;;;;;4935021;29;20111;-76
2023/07/31 04:42:01;;;;;;;14.90;5.50;;;;;;;;;;4935320;29;20043;-75
2023/07/31 04:44:27;;;;;;;16.08;5.22;;;;;;;;;;4935114;29;20046;-74
2023/07/31 04:46:53;;;;;;;12.73;4.70;;;;;;;;;;4934974;29;20079;-75
2023/07/31 04:49:19;;;;;;;11.73;4.60;;;;;;;;;;4935055;29;20035;-76
2023/07/31 04:51:45;;;;;;;10.35;4.60;;;;;;;;;;4935051;29;20035;-74
2023/07/31 04:54:12;;;;;;;12.77;4.90;;;;;;;;;;4935049;29;20041;-73
2023/07/31 04:56:38;;;;;;;10.70;4.47;;;;;;;;;;4934615;29;20649;-76
2023/07/31 04:59:04;;;;;;;10.65;4.60;;;;;;;;;;4935035;29;20043;-76
2023/07/31 05:01:30;;;;;;;12.55;4.28;;;;;;;;;;4935093;29;20042;-76
2023/07/31 05:03:57;;;;;;;10.40;4.15;;;;;;;;;;4934829;29;20071;-75
2023/07/31 05:06:23;;;;;;;10.10;4.95;;;;;;;;;;4935047;29;20062;-75
2023/07/31 05:08:49;;;;;;;9.50;4.13;;;;;;;;;;4934843;29;20506;-73
2023/07/31 05:11:15;;;;;;;8.20;4.03;;;;;;;;;;4949586;29;20035;-75
2023/07/31 05:13:41;;;;;;;5.95;4.68;;;;;;;;;;4934831;29;20055;-76
2023/07/31 05:16:07;;;;;;;7.97;3.80;;;;;;;;;;4934770;29;20548;-75
2023/07/31 05:18:33;;;;;;;5.90;4.10;;;;;;;;;;4934828;29;20471;-75
2023/07/31 05:20:59;;;;;;;6.97;4.75;;;;;;;;;;4936305;29;20046;-76
2023/07/31 05:23:25;;;;;;;7.10;3.97;;;;;;;;;;4933638;29;20032;-76
2023/07/31 05:25:51;;;;;;;4.00;3.60;;;;;;;;;;4934279;29;20040;-75
2023/07/31 05:28:17;;;;;;;6.78;3.95;;;;;;;;;;4934666;29;20134;-75
2023/07/31 05:30:43;;;;;;;11.45;3.90;;;;;;;;;;4934092;29;20047;-75
2023/07/31 05:33:09;;;;;;;6.95;3.22;;;;;;;;;;4934459;29;20044;-73
2023/07/31 05:35:36;;;;;;;7.30;3.28;;;;;;;;;;4934605;29;20123;-76
2023/07/31 05:38:02;;;;;;;5.28;3.60;;;;;;;;;;4934450;29;20514;-76
2023/07/31 05:40:28;;;;;;;4.07;3.30;;;;;;;;;;4934453;29;20035;-76
2023/07/31 05:42:54;;;;;;;4.32;3.15;;;;;;;;;;4934416;29;20550;-75
2023/07/31 05:45:20;;;;;;;5.25;3.33;;;;;;;;;;4932943;29;20071;-76
2023/07/31 05:47:46;;;;;;;4.50;3.22;;;;;;;;;;4934197;29;20187;-76
2023/07/31 05:50:14;;;;;;;4.00;3.50;;;;;;;;;;4934063;29;20130;-74
2023/07/31 05:52:40;;;;;;;6.68;3.05;;;;;;;;;;4934207;29;20495;-76
2023/07/31 05:55:06;;;;;;;4.78;2.80;;;;;;;;;;4934152;29;20055;-76
2023/07/31 05:57:32;;;;;;;4.05;3.00;;;;;;;;;;4934119;29;20118;-76
2023/07/31 05:59:59;;;;;;;8.05;2.90;;;;;;;;;;4933890;29;20499;-76
2023/07/31 06:02:24;;;;;;;4.78;2.30;;;;;;;;;;4934694;29;20392;-75
2023/07/31 06:04:51;;;;;;;2.58;2.10;;;;;;;;;;4952687;29;20047;-75
2023/07/31 06:07:17;;;;;;;2.38;2.28;;;;;;;;;;4942528;29;20039;-76
2023/07/31 06:09:44;;;;;;;3.90;2.35;;;;;;;;;;4943903;29;20095;-76
2023/07/31 06:12:10;;;;;;;2.17;2.00;;;;;;;;;;4933023;29;20436;-75
2023/07/31 06:14:36;;;;;;;3.63;2.08;;;;;;;;;;4932810;29;20210;-75
2023/07/31 06:17:02;;;;;;;4.05;2.00;;;;;;;;;;4933581;29;20303;-76
2023/07/31 06:19:29;;;;;;;3.47;2.05;;;;;;;;;;4933573;29;20511;-76
2023/07/31 06:21:54;;;;;;;1.90;1.80;;;;;;;;;;4933305;29;20082;-76
2023/07/31 06:24:22;;;;;;;2.35;1.88;;;;;;;;;;4933752;29;20059;-75
2023/07/31 06:26:48;;;;;;;1.98;1.88;;;;;;;;;;4933172;29;20044;-76
2023/07/31 06:29:14;;;;;;;1.80;1.70;;;;;;;;;;4933519;29;20031;-74
2023/07/31 06:31:40;;;;;;;4.00;2.22;;;;;;;;;;4933032;29;20057;-75
2023/07/31 06:34:07;;;;;;;1.80;1.70;;;;;;;;;;4932179;29;20036;-75
2023/07/31 06:36:33;;;;;;;1.50;1.42;;;;;;;;;;4933570;29;20043;-76
2023/07/31 06:38:59;;;;;;;2.10;1.95;;;;;;;;;;4933285;29;20044;-75
2023/07/31 06:41:25;;;;;;;1.80;1.70;;;;;;;;;;4933455;29;20464;-76
2023/07/31 06:43:53;;;;;;;4.63;1.70;;;;;;;;;;4939660;29;20423;-76
2023/07/31 06:46:19;;;;;;;2.17;1.98;;;;;;;;;;4944007;29;20044;-76
2023/07/31 06:48:45;;;;;;;1.95;1.85;;;;;;;;;;4934962;29;20066;-75
2023/07/31 06:51:11;;;;;;;2.85;1.80;;;;;;;;;;4934621;29;20051;-77
2023/07/31 06:53:37;;;;;;;6.78;2.03;;;;;;;;;;4934212;29;20031;-77
2023/07/31 06:56:03;;;;;;;1.70;1.60;;;;;;;;;;4933778;29;20558;-74
2023/07/31 06:58:30;;;;;;;4.10;1.95;;;;;;;;;;4933200;29;20089;-75
2023/07/31 07:00:56;;;;;;;4.78;1.95;;;;;;;;;;4933198;29;20035;-76
2023/07/31 07:03:22;;;;;;;3.40;1.70;;;;;;;;;;4931872;29;20494;-76
2023/07/31 07:05:48;;;;;;;2.05;1.83;;;;;;;;;;4932949;29;20447;-76
2023/07/31 07:08:15;;;;;;;1.45;1.42;;;;;;;;;;4933093;29;20042;-75
2023/07/31 07:10:41;;;;;;;2.08;1.80;;;;;;;;;;4932947;29;20047;-75
2023/07/31 07:13:07;;;;;;;6.45;2.00;;;;;;;;;;4932730;29;20047;-75
2023/07/31 07:15:33;;;;;;;2.80;1.70;;;;;;;;;;4932806;29;20036;-76
2023/07/31 07:18:00;;;;;;;2.90;1.65;;;;;;;;;;4932893;29;20387;-75
2023/07/31 07:20:26;;;;;;;1.75;1.65;;;;;;;;;;4932807;29;20402;-75
2023/07/31 07:22:52;;;;;;;2.83;1.30;;;;;;;;;;4932824;29;20066;-75
2023/07/31 07:25:18;;;;;;;3.17;1.73;;;;;;;;;;4931530;29;20047;-76
2023/07/31 07:27:45;;;;;;;1.40;1.40;;;;;;;;;;4932766;29;20044;-76
2023/07/31 07:30:11;;;;;;;1.58;1.40;;;;;;;;;;4932722;29;20457;-75
2023/07/31 07:32:37;;;;;;;1.45;1.40;;;;;;;;;;4932879;29;20040;-76
2023/07/31 07:35:04;;;;;;;1.60;1.50;;;;;;;;;;4932523;29;20126;-75
2023/07/31 07:37:30;;;;;;;1.65;1.55;;;;;;;;;;4932815;29;20044;-75
2023/07/31 07:39:57;;;;;;;2.17;1.77;;;;;;;;;;4932589;29;20039;-76
2023/07/31 07:42:23;;;;;;;4.53;1.70;;;;;;;;;;4933844;29;20409;-75
2023/07/31 07:44:49;;;;;;;1.70;1.60;;;;;;;;;;4936103;29;20032;-74
2023/07/31 07:47:15;;;;;;;2.28;1.70;;;;;;;;;;4936361;29;20059;-76
2023/07/31 07:49:41;;;;;;;1.83;1.73;;;;;;;;;;4936378;29;20035;-76
2023/07/31 07:52:07;;;;;;;2.30;1.60;;;;;;;;;;4935902;29;20052;-75
2023/07/31 07:54:33;;;;;;;3.28;1.70;;;;;;;;;;4936341;29;20130;-75
2023/07/31 07:56:59;;;;;;;2.88;1.70;;;;;;;;;;4935925;29;20054;-75
2023/07/31 07:59:25;;;;;;;2.80;1.83;;;;;;;;;;4936260;29;20031;-76
2023/07/31 08:01:52;;;;;;;1.80;1.70;;;;;;;;;;4935813;29;20098;-75
2023/07/31 08:04:18;;;;;;;7.93;2.03;;;;;;;;;;4936134;29;20036;-76
2023/07/31 08:06:44;;;;;;;3.78;1.83;;;;;;;;;;4935953;29;20566;-76
2023/07/31 08:09:10;;;;;;;3.83;1.75;;;;;;;;;;4951095;29;20044;-75
2023/07/31 08:11:36;;;;;;;1.75;1.65;;;;;;;;;;4938271;29;20108;-75
2023/07/31 08:14:02;;;;;;;3.92;1.50;;;;;;;;;;4936299;29;20039;-77
2023/07/31 08:16:28;;;;;;;1.75;1.50;;;;;;;;;;4935908;29;20392;-75
2023/07/31 08:18:54;;;;;;;1.80;1.70;;;;;;;;;;4935747;29;20036;-75
2023/07/31 08:21:21;;;;;;;2.22;1.50;;;;;;;;;;4935743;29;20039;-76
2023/07/31 08:23:47;;;;;;;1.63;1.52;;;;;;;;;;4935961;29;20429;-75
2023/07/31 08:26:17;;;;;;;1.60;1.50;;;;;;;;;;4935602;29;20148;-75
2023/07/31 08:28:43;;;;;;;1.80;1.70;;;;;;;;;;4935763;29;20126;-76
2023/07/31 08:31:10;;;;;;;1.85;1.60;;;;;;;;;;4935249;29;20040;-77
2023/07/31 08:33:37;;;;;;;1.58;1.52;;;;;;;;;;4934387;29;20043;-76
2023/07/31 08:36:03;;;;;;;1.95;1.85;;;;;;;;;;4935331;29;20043;-75
2023/07/31 08:38:29;;;;;;;1.80;1.70;;;;;;;;;;4950131;29;20510;-76
2023/07/31 08:40:58;;;;;;;3.22;1.60;;;;;;;;;;4933922;29;20047;-76
2023/07/31 08:43:28;;;;;;;1.60;1.50;;;;;;;;;;4934228;29;20042;-77
2023/07/31 08:45:54;;;;;;;3.30;1.55;;;;;;;;;;4935069;29;20042;-76
2023/07/31 08:48:20;;;;;;;1.75;1.65;;;;;;;;;;4935366;29;20042;-77
2023/07/31 08:50:46;;;;;;;2.00;1.90;;;;;;;;;;4935058;29;20043;-76
2023/07/31 08:53:12;;;;;;;1.73;1.63;;;;;;;;;;4933885;29;20039;-76
2023/07/31 08:55:38;;;;;;;2.72;1.83;;;;;;;;;;4931367;29;20023;-77
2023/07/31 08:58:04;;;;;;;3.42;1.77;;;;;;;;;;4924761;29;20064;-76
2023/07/31 09:00:31;;;;;;;1.63;1.52;;;;;;;;;;4936179;29;20023;-75
2023/07/31 09:03:06;;;;;;;3.55;1.77;;;;;;;;;;4947005;29;20048;-77
2023/07/31 09:05:33;;;;;;;1.95;1.85;;;;;;;;;;4928092;29;20550;-75
2023/07/31 09:07:59;;;;;;;3.90;1.90;;;;;;;;;;4935541;29;20043;-77
2023/07/31 09:10:24;;;;;;;1.85;1.75;;;;;;;;;;4947950;29;20114;-77
2023/07/31 09:12:51;;;;;;;1.90;1.70;;;;;;;;;;4936112;29;20119;-76
2023/07/31 09:15:17;;;;;;;2.58;1.88;;;;;;;;;;4924155;29;20517;-77
2023/07/31 09:17:43;;;;;;;5.18;1.70;;;;;;;;;;4925060;29;20027;-77
2023/07/31 09:20:19;;;;;;;1.88;1.77;;;;;;;;;;4945073;29;20132;-77
2023/07/31 09:22:45;;;;;;;2.03;1.80;;;;;;;;;;4940332;29;20031;-76
2023/07/31 09:25:16;;;;;;;2.00;1.90;;;;;;;;;;4943992;29;20039;-75
2023/07/31 09:27:48;;;;;;;1.63;1.50;;;;;;;;;;4953639;28;20046;-76
2023/07/31 09:30:15;;;;;;;3.85;1.90;;;;;;;;;;4953175;28;20090;-76
2023/07/31 09:32:41;;;;;;;4.50;1.90;;;;;;;;;;4946651;29;20048;-75
2023/07/31 09:35:23;;;;;;;2.20;2.10;;;;;;;;;;4938835;28;20471;-76
2023/07/31 09:37:52;;;;;;;3.47;1.90;;;;;;;;;;4914593;29;20040;-75
2023/07/31 09:40:28;;;;;;;2.08;1.98;;;;;;;;;;4922588;29;20035;-75
2023/07/31 09:42:55;;;;;;;2.67;2.45;;;;;;;;;;4948612;29;20043;-75
2023/07/31 09:45:21;;;;;;;4.10;1.92;;;;;;;;;;4951202;28;20033;-75
2023/07/31 09:47:50;;;;;;;2.10;2.00;;;;;;;;;;4949934;29;20047;-76
2023/07/31 09:50:16;;;;;;;2.10;2.00;;;;;;;;;;4950776;28;20146;-75
2023/07/31 09:52:43;;;;;;;4.20;2.38;;;;;;;;;;4951214;28;20102;-76
2023/07/31 09:55:09;;;;;;;2.30;2.10;;;;;;;;;;4951216;29;20042;-75
2023/07/31 09:57:37;;;;;;;2.28;2.13;;;;;;;;;;4952095;29;20067;-77
2023/07/31 10:00:03;;;;;;;2.38;2.17;;;;;;;;;;4953531;29;20042;-76
2023/07/31 10:02:39;;;;;;;1.90;1.80;;;;;;;;;;4954185;28;20139;-75
2023/07/31 10:05:05;;;;;;;2.20;2.10;;;;;;;;;;4952619;28;20039;-76
2023/07/31 10:07:31;;;;;;;1.90;1.80;;;;;;;;;;4952949;29;20046;-75
2023/07/31 10:09:58;;;;;;;6.90;2.67;;;;;;;;;;4952704;28;20039;-76
2023/07/31 10:12:25;;;;;;;2.35;2.00;;;;;;;;;;4951551;29;20055;-75
2023/07/31 10:14:51;;;;;;;2.72;2.45;;;;;;;;;;4952868;28;20039;-76
2023/07/31 10:17:18;;;;;;;4.50;2.10;;;;;;;;;;4951213;29;20043;-74
2023/07/31 10:19:44;;;;;;;2.53;2.10;;;;;;;;;;4952859;28;20035;-75
2023/07/31 10:22:10;;;;;;;2.38;2.20;;;;;;;;;;4952550;28;20054;-75
2023/07/31 10:24:36;;;;;;;2.58;2.03;;;;;;;;;;4951537;29;20035;-75
2023/07/31 10:27:03;;;;;;;5.80;2.10;;;;;;;;;;4951100;29;20046;-75
2023/07/31 10:29:29;;;;;;;3.92;2.30;;;;;;;;;;4952554;28;20035;-75
2023/07/31 10:31:56;;;;;;;2.08;1.83;;;;;;;;;;4952386;28;20047;-75
2023/07/31 10:34:22;;;;;;;2.70;2.25;;;;;;;;;;4951425;28;20047;-77
2023/07/31 10:36:49;;;;;;;2.97;2.08;;;;;;;;;;4952402;29;20127;-75
2023/07/31 10:39:33;;;;;;;2.25;2.05;;;;;;;;;;4952028;28;20513;-74
2023/07/31 10:41:59;;;;;;;6.05;2.40;;;;;;;;;;4950804;29;20074;-75
2023/07/31 10:44:25;;;;;;;1.90;1.80;;;;;;;;;;4952334;28;20066;-75
2023/07/31 10:46:54;;;;;;;3.28;2.00;;;;;;;;;;4952132;28;20047;-76
2023/07/31 10:49:23;;;;;;;2.17;2.08;;;;;;;;;;4950729;29;20035;-75
2023/07/31 10:51:49;;;;;;;2.63;2.43;;;;;;;;;;4951981;28;20039;-76
2023/07/31 10:54:16;;;;;;;2.35;2.20;;;;;;;;;;4951771;28;20031;-76
2023/07/31 10:56:46;;;;;;;3.22;2.08;;;;;;;;;;4951760;28;20062;-74
2023/07/31 10:59:13;;;;;;;2.20;2.10;;;;;;;;;;4950774;29;20031;-75
2023/07/31 11:01:52;;;;;;;5.97;2.22;;;;;;;;;;4936113;29;20042;-76
2023/07/31 11:04:27;;;;;;;3.03;2.33;;;;;;;;;;4951931;29;20373;-75
2023/07/31 11:06:59;;;;;;;8.30;2.70;;;;;;;;;;4951859;28;20130;-75
2023/07/31 11:09:30;;;;;;;2.63;2.20;;;;;;;;;;4951873;29;20407;-75
2023/07/31 11:11:56;;;;;;;3.33;2.53;;;;;;;;;;4952013;28;20050;-75
2023/07/31 11:14:22;;;;;;;2.58;2.38;;;;;;;;;;4951617;29;20118;-76
2023/07/31 11:16:49;;;;;;;4.78;2.40;;;;;;;;;;4953601;28;20466;-76
2023/07/31 11:19:21;;;;;;;3.08;2.58;;;;;;;;;;4955664;29;20094;-75
2023/07/31 11:21:47;;;;;;;8.05;2.30;;;;;;;;;;4955832;28;20039;-76
2023/07/31 11:24:13;;;;;;;4.07;2.72;;;;;;;;;;4954175;29;20058;-75
2023/07/31 11:26:47;;;;;;;2.47;2.38;;;;;;;;;;4955604;28;20039;-76
2023/07/31 11:29:13;;;;;;;10.65;2.60;;;;;;;;;;4955508;29;20066;-75
2023/07/31 11:31:43;;;;;;;3.13;2.30;;;;;;;;;;4955516;28;20078;-75
2023/07/31 11:34:08;;;;;;;3.50;2.30;;;;;;;;;;4955271;29;20031;-76
2023/07/31 11:36:34;;;;;;;2.80;2.25;;;;;;;;;;4955383;29;20474;-75
2023/07/31 11:39:10;;;;;;;3.20;2.22;;;;;;;;;;4955373;28;20031;-75
2023/07/31 11:41:36;;;;;;;2.83;2.53;;;;;;;;;;4955498;28;20074;-75
2023/07/31 11:44:02;;;;;;;3.13;2.83;;;;;;;;;;4954135;29;20042;-75
2023/07/31 11:46:32;;;;;;;2.70;2.35;;;;;;;;;;4955430;28;20043;-74
2023/07/31 11:48:59;;;;;;;2.58;2.38;;;;;;;;;;4954474;29;20042;-75
2023/07/31 11:51:24;;;;;;;3.83;2.25;;;;;;;;;;4955059;28;20062;-76
2023/07/31 11:53:51;;;;;;;4.55;2.50;;;;;;;;;;4954327;29;20862;-75
2023/07/31 11:56:18;;;;;;;6.70;2.85;;;;;;;;;;4953316;29;20701;-74
2023/07/31 11:58:48;;;;;;;2.90;2.70;;;;;;;;;;4955543;28;20142;-74
2023/07/31 12:01:13;;;;;;;;;;;;;;;;;;4954144;29;20384;-75
2023/07/31 12:03:40;;;;;;;2.83;2.60;;;;;;;;;;4955461;29;19937;-75
2023/07/31 12:06:06;;;;;;;3.42;2.90;;;;;;;;;;4953917;29;20415;-73
2023/07/31 12:08:32;;;;;;;2.63;2.20;;;;;;;;;;4960215;29;20039;-75
2023/07/31 12:11:02;;;;;;;2.85;2.30;;;;;;;;;;4964226;29;20039;-74
2023/07/31 12:13:29;;;;;;;9.13;2.60;;;;;;;;;;4963957;29;20582;-74
2023/07/31 12:15:56;;;;;;;2.67;2.33;;;;;;;;;;4923016;29;20126;-75
2023/07/31 12:18:22;;;;;;;3.78;2.80;;;;;;;;;;4953703;28;20129;-75
2023/07/31 12:20:49;;;;;;;4.20;2.80;;;;;;;;;;4954721;28;20450;-73
2023/07/31 12:23:19;;;;;;;9.27;4.20;;;;;;;;;;4954594;29;20066;-75
2023/07/31 12:25:44;;;;;;;2.78;2.50;;;;;;;;;;4953751;29;20105;-74
2023/07/31 12:28:14;;;;;;;10.15;3.80;;;;;;;;;;4952752;28;20042;-74
2023/07/31 12:30:40;;;;;;;2.60;2.40;;;;;;;;;;4956766;28;20502;-74
2023/07/31 12:33:13;;;;;;;6.95;2.47;;;;;;;;;;4975416;28;20043;-74
2023/07/31 12:35:40;;;;;;;2.50;2.30;;;;;;;;;;4958852;28;20074;-76
2023/07/31 12:38:07;;;;;;;2.30;2.10;;;;;;;;;;4955045;28;20478;-77
2023/07/31 12:40:33;;;;;;;3.15;2.50;;;;;;;;;;4955178;28;20062;-74
2023/07/31 12:43:05;;;;;;;3.58;2.38;;;;;;;;;;4954715;28;20576;-75
2023/07/31 12:45:31;;;;;;;2.20;2.10;;;;;;;;;;4953350;29;20036;-74
2023/07/31 12:47:57;;;;;;;2.10;2.00;;;;;;;;;;4954550;28;20046;-75
2023/07/31 12:50:23;;;;;;;2.80;2.70;;;;;;;;;;4954151;29;20055;-74
2023/07/31 12:52:49;;;;;;;2.65;2.17;;;;;;;;;;4954441;28;20518;-74
2023/07/31 12:55:16;;;;;;;2.92;2.13;;;;;;;;;;4953871;28;20039;-74
2023/07/31 12:57:42;;;;;;;4.82;2.13;;;;;;;;;;4954216;28;20071;-73
2023/07/31 13:00:08;;;;;;;9.10;2.40;;;;;;;;;;4954345;28;20039;-74
2023/07/31 13:02:34;;;;;;;2.70;2.50;;;;;;;;;;4952965;29;20349;-75
2023/07/31 13:05:00;;;;;;;3.17;2.30;;;;;;;;;;4954255;28;20375;-75
2023/07/31 13:07:26;;;;;;;2.60;2.40;;;;;;;;;;4953662;29;20047;-75
2023/07/31 13:09:52;;;;;;;2.25;2.10;;;;;;;;;;4954104;28;20218;-74
2023/07/31 13:12:18;;;;;;;4.25;2.28;;;;;;;;;;4953515;28;20125;-74
2023/07/31 13:14:44;;;;;;;3.50;2.45;;;;;;;;;;4953969;28;20426;-75
2023/07/31 13:17:10;;;;;;;2.30;2.20;;;;;;;;;;4953671;28;20058;-75
2023/07/31 13:19:36;;;;;;;3.35;2.28;;;;;;;;;;4952559;29;20046;-74
2023/07/31 13:22:02;;;;;;;5.90;2.65;;;;;;;;;;4953762;28;20031;-75
2023/07/31 13:24:28;;;;;;;2.55;2.35;;;;;;;;;;4952216;29;20126;-75
2023/07/31 13:26:55;;;;;;;3.47;2.53;;;;;;;;;;4953525;28;20118;-74
2023/07/31 13:29:21;;;;;;;3.75;2.30;;;;;;;;;;4953426;29;20057;-74
2023/07/31 13:31:48;;;;;;;4.38;2.13;;;;;;;;;;4953485;29;20043;-74
2023/07/31 13:34:13;;;;;;;2.50;2.30;;;;;;;;;;4952048;29;20051;-75
2023/07/31 13:36:39;;;;;;;2.10;1.92;;;;;;;;;;4953356;28;20113;-74
2023/07/31 13:39:06;;;;;;;5.35;2.10;;;;;;;;;;4953250;28;20035;-75
2023/07/31 13:41:32;;;;;;;4.10;2.25;;;;;;;;;;4952169;29;20491;-74
2023/07/31 13:43:58;;;;;;;3.08;2.78;;;;;;;;;;4953502;29;20126;-75
2023/07/31 13:46:25;;;;;;;4.90;2.67;;;;;;;;;;4953101;28;20039;-74
2023/07/31 13:48:54;;;;;;;8.73;2.50;;;;;;;;;;4953546;28;20039;-75
2023/07/31 13:51:20;;;;;;;2.67;2.45;;;;;;;;;;4953294;28;20035;-76
2023/07/31 13:53:46;;;;;;;3.08;2.50;;;;;;;;;;4954964;28;20414;-75
2023/07/31 13:56:12;;;;;;;3.38;2.45;;;;;;;;;;4953607;28;20334;-74
2023/07/31 13:58:38;;;;;;;2.70;2.40;;;;;;;;;;4954481;29;20050;-74
2023/07/31 14:01:04;;;;;;;4.35;2.50;;;;;;;;;;4952805;29;20137;-74
2023/07/31 14:03:30;;;;;;;3.20;2.50;;;;;;;;;;4954071;28;20039;-74
2023/07/31 14:05:56;;;;;;;2.33;2.22;;;;;;;;;;4954477;28;20528;-75
2023/07/31 14:08:22;;;;;;;2.85;2.50;;;;;;;;;;4953974;28;20039;-74
2023/07/31 14:10:48;;;;;;;2.20;2.10;;;;;;;;;;4953818;28;20415;-76
2023/07/31 14:13:15;;;;;;;3.03;2.50;;;;;;;;;;4952422;29;20064;-76
2023/07/31 14:15:41;;;;;;;3.35;2.70;;;;;;;;;;4954063;29;20035;-76
2023/07/31 14:18:07;;;;;;;2.30;2.20;;;;;;;;;;4953023;28;20063;-75
2023/07/31 14:20:34;;;;;;;5.82;2.92;;;;;;;;;;4952470;28;20102;-73
2023/07/31 14:23:01;;;;;;;3.30;3.03;;;;;;;;;;4951541;29;20090;-75
2023/07/31 14:25:26;;;;;;;5.13;2.97;;;;;;;;;;4952538;28;20039;-74
2023/07/31 14:27:52;;;;;;;2.97;2.40;;;;;;;;;;4952719;28;20536;-74
2023/07/31 14:30:18;;;;;;;2.72;2.53;;;;;;;;;;4952279;29;20074;-75
2023/07/31 14:32:45;;;;;;;2.80;2.60;;;;;;;;;;4952404;29;20043;-75
2023/07/31 14:35:11;;;;;;;3.25;2.50;;;;;;;;;;4951142;29;20039;-74